createdAt,value
2018-08-16T00:00:53.079Z,19.60
2018-08-16T00:03:21.357Z,19.60
2018-08-16T00:05:49.661Z,19.50
2018-08-16T00:08:17.934Z,19.40
2018-08-16T00:10:46.213Z,19.40
2018-08-16T00:25:17.413Z,19.30
2018-08-16T00:27:45.719Z,19.30
2018-08-16T00:30:15.296Z,19.30
2018-08-16T00:32:44.037Z,19.30
2018-08-16T00:35:12.395Z,19.30
2018-08-16T00:37:40.933Z,19.30
2018-08-16T00:40:11.001Z,19.30
2018-08-16T00:42:39.303Z,19.30
2018-08-16T00:45:08.535Z,19.30
2018-08-16T00:47:36.866Z,19.30
2018-08-16T00:50:06.810Z,19.30
2018-08-16T00:52:35.382Z,19.30
2018-08-16T00:55:04.493Z,19.20
2018-08-16T00:57:32.758Z,19.20
2018-08-16T01:00:01.046Z,19.20
2018-08-16T01:02:29.326Z,19.10
2018-08-16T01:04:57.606Z,19.10
2018-08-16T01:07:25.862Z,19.10
2018-08-16T01:09:54.300Z,19.00
2018-08-16T01:12:42.237Z,19.00
2018-08-16T01:15:12.049Z,19.00
2018-08-16T01:18:02.554Z,18.90
2018-08-16T01:20:30.881Z,18.90
2018-08-16T01:25:51.998Z,18.90
2018-08-16T01:28:20.286Z,18.90
2018-08-16T01:30:48.559Z,18.90
2018-08-16T01:33:16.828Z,18.90
2018-08-16T01:35:45.183Z,18.90
2018-08-16T01:38:13.411Z,18.90
2018-08-16T01:40:41.685Z,18.90
2018-08-16T01:43:10.041Z,18.80
2018-08-16T01:45:38.366Z,18.90
2018-08-16T01:48:06.653Z,18.80
2018-08-16T01:50:34.976Z,18.80
2018-08-16T01:53:03.256Z,18.80
2018-08-16T01:55:31.539Z,18.70
2018-08-16T01:57:59.804Z,18.70
2018-08-16T02:00:28.083Z,18.70
2018-08-16T02:02:56.366Z,18.70
2018-08-16T02:05:24.664Z,18.70
2018-08-16T02:07:52.970Z,18.70
2018-08-16T02:10:21.242Z,18.70
2018-08-16T02:12:49.534Z,18.70
2018-08-16T02:15:30.238Z,18.70
2018-08-16T02:17:58.513Z,18.70
2018-08-16T02:23:20.098Z,18.80
2018-08-16T03:14:23.985Z,18.90
2018-08-16T03:16:52.300Z,18.90
2018-08-16T03:19:20.703Z,18.90
2018-08-16T03:27:56.534Z,18.80
2018-08-16T03:30:24.873Z,18.80
2018-08-16T03:32:53.179Z,18.70
2018-08-16T03:35:21.496Z,18.80
2018-08-16T03:37:49.836Z,18.80
2018-08-16T03:40:18.141Z,18.70
2018-08-16T03:42:46.473Z,18.70
2018-08-16T03:45:14.806Z,18.70
2018-08-16T03:47:43.108Z,18.60
2018-08-16T03:50:11.373Z,18.60
2018-08-16T03:52:39.646Z,18.60
2018-08-16T03:55:08.026Z,18.50
2018-08-16T03:57:36.340Z,18.50
2018-08-16T04:00:05.637Z,18.40
2018-08-16T04:02:33.921Z,18.40
2018-08-16T04:05:02.232Z,18.30
2018-08-16T04:07:30.762Z,18.20
2018-08-16T04:09:59.054Z,18.20
2018-08-16T04:12:27.350Z,18.20
2018-08-16T04:20:51.258Z,18.10
2018-08-16T04:23:19.628Z,18.10
2018-08-16T04:25:47.962Z,18.10
2018-08-16T04:28:16.277Z,18.00
2018-08-16T04:30:44.612Z,18.00
2018-08-16T04:33:12.902Z,18.00
2018-08-16T04:35:43.438Z,18.00
2018-08-16T04:38:13.914Z,18.00
2018-08-16T04:40:42.307Z,18.00
2018-08-16T04:43:11.790Z,18.00
2018-08-16T04:45:46.454Z,18.00
2018-08-16T04:48:15.411Z,18.00
2018-08-16T04:50:44.642Z,18.00
2018-08-16T04:53:12.933Z,18.00
2018-08-16T04:55:41.601Z,18.00
2018-08-16T04:58:10.750Z,18.00
2018-08-16T05:00:39.235Z,18.00
2018-08-16T05:03:07.577Z,18.00
2018-08-16T05:05:35.884Z,18.00
2018-08-16T05:08:04.198Z,18.00
2018-08-16T05:10:32.482Z,18.10
2018-08-16T15:04:34.607Z,30.80
2018-08-16T19:33:33.550Z,24.30
2018-08-16T19:36:01.875Z,24.20
2018-08-16T19:38:30.185Z,24.10
2018-08-16T19:40:58.495Z,24.00
2018-08-16T19:43:27.138Z,23.70
2018-08-16T19:45:55.452Z,23.60
2018-08-16T19:51:14.155Z,23.50
2018-08-16T19:53:42.473Z,23.40
2018-08-16T19:56:10.780Z,23.40
2018-08-16T19:58:39.091Z,23.40
2018-08-16T20:01:07.608Z,23.30
2018-08-16T20:03:35.729Z,23.40
2018-08-16T20:06:04.027Z,23.30
2018-08-16T20:08:32.274Z,23.20
2018-08-16T20:11:00.636Z,23.20
2018-08-16T20:19:13.850Z,23.00
2018-08-16T20:21:42.155Z,23.00
2018-08-16T21:15:45.242Z,22.70
2018-08-16T21:18:13.563Z,22.70
2018-08-16T21:23:35.058Z,22.50
2018-08-16T21:26:03.389Z,22.50
2018-08-16T21:28:31.715Z,22.40
2018-08-16T21:31:00.013Z,22.40
2018-08-16T21:33:28.335Z,22.30
2018-08-16T21:35:56.696Z,22.20
2018-08-16T21:38:25.008Z,22.20
2018-08-16T21:40:53.316Z,22.20
2018-08-16T21:43:21.640Z,22.20
2018-08-16T21:45:50.521Z,22.10
2018-08-16T21:48:18.850Z,22.10
2018-08-16T21:50:47.129Z,22.10
2018-08-16T21:53:15.445Z,22.10
2018-08-16T21:55:43.740Z,22.00
2018-08-16T21:58:12.059Z,21.90
2018-08-16T22:00:55.533Z,21.80
2018-08-16T22:03:26.123Z,21.80
2018-08-16T22:06:04.904Z,21.80
2018-08-16T22:08:42.405Z,21.80
2018-08-16T22:11:10.934Z,21.70
2018-08-16T22:13:57.913Z,21.80
2018-08-16T22:16:26.216Z,21.80
2018-08-16T22:21:47.502Z,21.70
2018-08-16T22:24:15.793Z,21.70
2018-08-16T22:26:44.077Z,21.70
2018-08-16T22:29:12.353Z,21.60
2018-08-16T22:31:40.646Z,21.50
2018-08-16T22:34:09.047Z,21.40
2018-08-16T22:36:37.320Z,21.50
2018-08-16T22:39:08.315Z,21.40
2018-08-16T22:41:36.612Z,21.40
2018-08-16T22:44:04.894Z,21.40
2018-08-16T22:46:33.164Z,21.40
2018-08-16T22:49:01.421Z,21.40
2018-08-16T22:51:29.692Z,21.30
2018-08-16T22:53:58.003Z,21.30
2018-08-16T22:56:26.273Z,21.20
2018-08-16T22:58:54.555Z,21.20
2018-08-16T23:01:22.878Z,21.10
2018-08-16T23:03:51.162Z,21.00
2018-08-16T23:06:19.458Z,20.80
2018-08-16T23:08:47.726Z,20.80
2018-08-16T23:11:16.011Z,20.80
2018-08-16T23:13:44.293Z,20.80
2018-08-16T23:16:12.586Z,20.90
2018-08-16T23:18:40.870Z,20.80
2018-08-16T23:21:09.154Z,20.90
2018-08-16T23:23:37.767Z,20.90
2018-08-16T23:26:06.025Z,20.90
2018-08-16T23:28:34.311Z,20.90
2018-08-16T23:31:02.601Z,20.90
2018-08-16T23:33:30.878Z,20.90
2018-08-16T23:35:59.147Z,20.90
2018-08-16T23:38:27.443Z,20.80
2018-08-16T23:40:55.733Z,20.80
2018-08-16T23:43:23.998Z,20.80
2018-08-16T23:45:52.319Z,20.70
2018-08-16T23:48:28.894Z,20.30
2018-08-16T23:50:57.206Z,19.90
2018-08-16T23:53:25.557Z,19.80
2018-08-16T23:55:53.881Z,19.70
2018-08-16T23:58:22.210Z,19.80
